Time;durP1;ratioP1;P1;durP2;ratioP2;P2;SDS_P1;SDS_P2;PMS_P1;PMS_P2;Temp;Humidity;BMP_temperature;BMP_pressure;BME280_temperature;BME280_humidity;BME280_pressure;Samples;Min_cycle;Max_cycle;Signal;HPM_P1;HPM_P2
2021/03/04 00:00:35;;;;;;;0.07;0.07;;;;;;;;;;5011248;28;20685;-65
2021/03/04 00:03:07;;;;;;;0.00;0.00;;;;;;;;;;5011584;28;20207;-62
2021/03/04 00:05:33;;;;;;;0.00;0.00;;;;;;;;;;5011799;28;20257;-62
2021/03/04 00:08:01;;;;;;;0.00;0.00;;;;;;;;;;5012767;28;20564;-61
2021/03/04 00:10:30;;;;;;;0.40;0.40;;;;;;;;;;5009540;28;20176;-61
2021/03/04 00:12:57;;;;;;;0.00;0.00;;;;;;;;;;5013021;28;20188;-62
2021/03/04 00:15:26;;;;;;;0.00;0.00;;;;;;;;;;5012228;28;20188;-62
2021/03/04 00:17:52;;;;;;;0.33;0.33;;;;;;;;;;5010995;28;20281;-63
2021/03/04 00:20:21;;;;;;;0.00;0.00;;;;;;;;;;5012170;28;20199;-63
2021/03/04 00:22:48;;;;;;;0.10;0.10;;;;;;;;;;5009457;28;20834;-63
2021/03/04 00:25:15;;;;;;;0.00;0.00;;;;;;;;;;5013364;28;20213;-63
2021/03/04 00:27:43;;;;;;;0.00;0.00;;;;;;;;;;5011682;28;20226;-62
2021/03/04 00:30:11;;;;;;;1.03;0.33;;;;;;;;;;5010118;28;20191;-62
2021/03/04 00:32:39;;;;;;;0.00;0.00;;;;;;;;;;5013554;28;20212;-62
2021/03/04 00:35:06;;;;;;;0.30;0.30;;;;;;;;;;5012061;28;20188;-63
2021/03/04 00:37:33;;;;;;;1.50;0.30;;;;;;;;;;5009812;28;20184;-63
2021/03/04 00:39:59;;;;;;;0.03;0.03;;;;;;;;;;5012139;28;20212;-64
2021/03/04 00:42:26;;;;;;;0.00;0.00;;;;;;;;;;5014315;28;20193;-63
2021/03/04 00:44:53;;;;;;;0.00;0.00;;;;;;;;;;5012464;28;20925;-63
2021/03/04 00:47:21;;;;;;;0.00;0.00;;;;;;;;;;5010027;28;20181;-63
2021/03/04 00:49:47;;;;;;;3.70;0.10;;;;;;;;;;5007691;28;20203;-64
2021/03/04 00:52:14;;;;;;;0.10;0.10;;;;;;;;;;5007786;28;20203;-63
2021/03/04 00:54:42;;;;;;;0.00;0.00;;;;;;;;;;5009775;28;21088;-63
2021/03/04 00:57:08;;;;;;;0.10;0.10;;;;;;;;;;5007912;28;20259;-63
2021/03/04 00:59:35;;;;;;;0.00;0.00;;;;;;;;;;5010066;28;20262;-63
2021/03/04 01:02:02;;;;;;;0.40;0.40;;;;;;;;;;5012703;28;20183;-63
2021/03/04 01:04:28;;;;;;;0.43;0.43;;;;;;;;;;5011428;28;20214;-63
2021/03/04 01:06:56;;;;;;;0.00;0.00;;;;;;;;;;5006602;28;20693;-62
2021/03/04 01:09:23;;;;;;;0.00;0.00;;;;;;;;;;5004276;28;20184;-63
2021/03/04 01:11:51;;;;;;;0.00;0.00;;;;;;;;;;5005883;28;20641;-63
2021/03/04 01:14:22;;;;;;;0.20;0.20;;;;;;;;;;5011699;28;20273;-63
2021/03/04 01:16:52;;;;;;;0.10;0.10;;;;;;;;;;5013408;28;20203;-63
2021/03/04 01:19:18;;;;;;;0.00;0.00;;;;;;;;;;5012868;28;20629;-63
2021/03/04 01:21:45;;;;;;;0.03;0.03;;;;;;;;;;5013368;28;20211;-64
2021/03/04 01:24:11;;;;;;;0.03;0.03;;;;;;;;;;5013091;28;20994;-63
2021/03/04 01:26:39;;;;;;;0.00;0.00;;;;;;;;;;5010278;28;20188;-64
2021/03/04 01:29:06;;;;;;;0.00;0.00;;;;;;;;;;5007981;28;20202;-63
2021/03/04 01:31:32;;;;;;;0.00;0.00;;;;;;;;;;5002616;28;20190;-62
2021/03/04 01:33:59;;;;;;;0.37;0.23;;;;;;;;;;5007236;28;20898;-63
2021/03/04 01:36:26;;;;;;;0.10;0.10;;;;;;;;;;5006457;28;20553;-62
2021/03/04 01:38:54;;;;;;;0.10;0.10;;;;;;;;;;5006388;28;20732;-62
2021/03/04 01:41:20;;;;;;;0.10;0.10;;;;;;;;;;5012803;28;20179;-62
2021/03/04 01:43:47;;;;;;;0.00;0.00;;;;;;;;;;5012713;28;20203;-62
2021/03/04 01:46:14;;;;;;;0.00;0.00;;;;;;;;;;5006378;28;20208;-63
2021/03/04 01:48:41;;;;;;;3.03;0.70;;;;;;;;;;5013179;28;20195;-62
2021/03/04 01:51:09;;;;;;;0.10;0.10;;;;;;;;;;5011973;28;20184;-63
2021/03/04 01:53:35;;;;;;;0.00;0.00;;;;;;;;;;5009419;28;20207;-63
2021/03/04 01:56:02;;;;;;;0.40;0.30;;;;;;;;;;5006547;28;20192;-62
2021/03/04 01:58:28;;;;;;;0.13;0.13;;;;;;;;;;5008271;28;20206;-63
2021/03/04 02:00:57;;;;;;;0.00;0.00;;;;;;;;;;5010664;28;20188;-63
2021/03/04 02:03:24;;;;;;;0.10;0.10;;;;;;;;;;5008871;28;20213;-62
2021/03/04 02:05:51;;;;;;;0.10;0.10;;;;;;;;;;5005354;28;20215;-63
2021/03/04 02:08:37;;;;;;;0.10;0.10;;;;;;;;;;5009644;28;20205;-63
2021/03/04 02:11:11;;;;;;;8.03;0.53;;;;;;;;;;5010071;28;20202;-63
2021/03/04 02:13:44;;;;;;;0.00;0.00;;;;;;;;;;5011332;28;20188;-64
2021/03/04 02:16:11;;;;;;;0.00;0.00;;;;;;;;;;5009244;28;21111;-63
2021/03/04 02:18:43;;;;;;;0.00;0.00;;;;;;;;;;5010093;28;20287;-63
2021/03/04 02:21:13;;;;;;;0.00;0.00;;;;;;;;;;5011838;28;20315;-63
2021/03/04 02:23:39;;;;;;;0.00;0.00;;;;;;;;;;5009886;28;20195;-63
2021/03/04 02:26:11;;;;;;;0.00;0.00;;;;;;;;;;5009468;28;20342;-63
2021/03/04 02:28:41;;;;;;;0.13;0.13;;;;;;;;;;5009352;28;20430;-62
2021/03/04 02:31:09;;;;;;;0.10;0.10;;;;;;;;;;5011935;28;20226;-62
2021/03/04 02:33:37;;;;;;;8.60;0.67;;;;;;;;;;5005499;28;20197;-63
2021/03/04 02:36:04;;;;;;;0.00;0.00;;;;;;;;;;5011467;28;20782;-63
2021/03/04 02:38:31;;;;;;;0.10;0.10;;;;;;;;;;5009718;28;20182;-64
2021/03/04 02:40:58;;;;;;;0.20;0.20;;;;;;;;;;5003284;28;20199;-63
2021/03/04 02:43:26;;;;;;;0.30;0.30;;;;;;;;;;5004531;28;20227;-64
2021/03/04 02:45:54;;;;;;;0.10;0.10;;;;;;;;;;5011686;28;20266;-63
2021/03/04 02:48:21;;;;;;;0.10;0.10;;;;;;;;;;5008626;28;20191;-63
2021/03/04 02:50:48;;;;;;;0.10;0.10;;;;;;;;;;5002932;28;20249;-63
2021/03/04 02:53:15;;;;;;;0.10;0.10;;;;;;;;;;5011321;28;20191;-63
2021/03/04 02:55:42;;;;;;;0.10;0.10;;;;;;;;;;5006756;28;20198;-63
2021/03/04 02:58:09;;;;;;;0.20;0.20;;;;;;;;;;5004486;28;20653;-63
2021/03/04 03:00:37;;;;;;;0.10;0.10;;;;;;;;;;5008012;28;20211;-63
2021/03/04 03:03:08;;;;;;;0.10;0.10;;;;;;;;;;5003000;28;20206;-64
2021/03/04 03:05:35;;;;;;;0.10;0.10;;;;;;;;;;5005085;28;20893;-63
2021/03/04 03:08:02;;;;;;;0.10;0.10;;;;;;;;;;5003335;28;20254;-63
2021/03/04 03:10:29;;;;;;;0.00;0.00;;;;;;;;;;5006479;28;20180;-63
2021/03/04 03:12:57;;;;;;;0.30;0.30;;;;;;;;;;5004734;28;20183;-63
2021/03/04 03:15:24;;;;;;;0.10;0.10;;;;;;;;;;5005044;28;20204;-63
2021/03/04 03:17:52;;;;;;;0.10;0.10;;;;;;;;;;5008566;28;20225;-63
2021/03/04 03:20:20;;;;;;;0.10;0.10;;;;;;;;;;5006166;28;20911;-63
2021/03/04 03:22:48;;;;;;;0.40;0.40;;;;;;;;;;5004143;28;20191;-63
2021/03/04 03:25:15;;;;;;;0.10;0.10;;;;;;;;;;5005255;28;20220;-63
2021/03/04 03:27:42;;;;;;;0.10;0.10;;;;;;;;;;5010458;28;20192;-63
2021/03/04 03:30:10;;;;;;;0.10;0.10;;;;;;;;;;5010367;28;20833;-63
2021/03/04 03:32:38;;;;;;;0.20;0.20;;;;;;;;;;5016120;28;20845;-63
2021/03/04 03:35:07;;;;;;;0.07;0.07;;;;;;;;;;5010825;28;20210;-63
2021/03/04 03:37:35;;;;;;;0.20;0.20;;;;;;;;;;5004771;28;20210;-63
2021/03/04 03:40:03;;;;;;;0.10;0.10;;;;;;;;;;5003504;28;20364;-63
2021/03/04 03:42:32;;;;;;;0.10;0.10;;;;;;;;;;5008115;28;20195;-63
2021/03/04 03:44:59;;;;;;;0.10;0.10;;;;;;;;;;5001813;28;20236;-63
2021/03/04 03:47:26;;;;;;;0.10;0.10;;;;;;;;;;5015012;28;20214;-63
2021/03/04 03:49:53;;;;;;;0.10;0.10;;;;;;;;;;5000972;28;21931;-63
2021/03/04 03:52:20;;;;;;;0.10;0.10;;;;;;;;;;5005383;28;20278;-63
2021/03/04 03:54:47;;;;;;;0.10;0.10;;;;;;;;;;5004603;28;20306;-63
2021/03/04 03:57:14;;;;;;;0.60;0.50;;;;;;;;;;5010514;28;20927;-63
2021/03/04 03:59:42;;;;;;;0.77;0.73;;;;;;;;;;5010813;28;20203;-63
2021/03/04 04:02:09;;;;;;;0.20;0.20;;;;;;;;;;5009648;28;20191;-63
2021/03/04 04:04:35;;;;;;;0.00;0.00;;;;;;;;;;5007793;28;20208;-63
2021/03/04 04:07:04;;;;;;;0.30;0.30;;;;;;;;;;5013442;28;20697;-63
2021/03/04 04:09:34;;;;;;;0.10;0.10;;;;;;;;;;5007572;28;20366;-63
2021/03/04 04:12:01;;;;;;;0.37;0.37;;;;;;;;;;5006455;28;20187;-62
2021/03/04 04:14:27;;;;;;;0.57;0.57;;;;;;;;;;5005015;28;20188;-62
2021/03/04 04:16:54;;;;;;;0.10;0.10;;;;;;;;;;5003899;28;20203;-62
2021/03/04 04:19:21;;;;;;;0.30;0.30;;;;;;;;;;5000158;28;20941;-62
2021/03/04 04:21:48;;;;;;;0.10;0.10;;;;;;;;;;5003193;28;20189;-62
2021/03/04 04:24:15;;;;;;;1.57;1.03;;;;;;;;;;5004035;28;20761;-63
2021/03/04 04:26:42;;;;;;;0.10;0.10;;;;;;;;;;5009546;28;20191;-63
2021/03/04 04:29:08;;;;;;;0.10;0.10;;;;;;;;;;5013774;28;20179;-63
2021/03/04 04:31:35;;;;;;;1.60;1.47;;;;;;;;;;5008296;28;20195;-63
2021/03/04 04:34:03;;;;;;;0.33;0.33;;;;;;;;;;5001609;28;20635;-63
2021/03/04 04:36:30;;;;;;;0.00;0.00;;;;;;;;;;5013183;28;20184;-63
2021/03/04 04:38:56;;;;;;;0.30;0.30;;;;;;;;;;5007640;28;20194;-63
2021/03/04 04:41:24;;;;;;;0.10;0.10;;;;;;;;;;5005707;28;20175;-62
2021/03/04 04:43:50;;;;;;;0.10;0.10;;;;;;;;;;5012052;28;20183;-63
2021/03/04 04:46:17;;;;;;;0.20;0.20;;;;;;;;;;5013248;28;20219;-62
2021/03/04 04:48:43;;;;;;;1.63;0.57;;;;;;;;;;5009708;28;20935;-63
2021/03/04 04:51:11;;;;;;;1.90;0.67;;;;;;;;;;5021439;28;20194;-63
2021/03/04 04:53:38;;;;;;;0.10;0.10;;;;;;;;;;5009558;28;20668;-63
2021/03/04 04:56:04;;;;;;;0.00;0.00;;;;;;;;;;5008141;28;20715;-63
2021/03/04 04:58:32;;;;;;;0.20;0.20;;;;;;;;;;5011976;28;20191;-63
2021/03/04 05:00:59;;;;;;;1.60;0.77;;;;;;;;;;5014119;28;20199;-63
2021/03/04 05:03:26;;;;;;;2.03;0.77;;;;;;;;;;5013756;28;20594;-63
2021/03/04 05:05:52;;;;;;;0.20;0.20;;;;;;;;;;5014178;28;20272;-63
2021/03/04 05:08:19;;;;;;;0.40;0.40;;;;;;;;;;5012532;28;21926;-63
2021/03/04 05:10:45;;;;;;;2.00;2.00;;;;;;;;;;5011706;28;20186;-63
2021/03/04 05:13:12;;;;;;;7.33;6.80;;;;;;;;;;5011285;28;20862;-63
2021/03/04 05:15:38;;;;;;;0.10;0.10;;;;;;;;;;5012615;28;20194;-63
2021/03/04 05:18:05;;;;;;;0.20;0.20;;;;;;;;;;5007020;28;20222;-63
2021/03/04 05:20:32;;;;;;;0.10;0.10;;;;;;;;;;5008028;28;20410;-63
2021/03/04 05:22:58;;;;;;;0.10;0.10;;;;;;;;;;5013472;28;20222;-63
2021/03/04 05:25:25;;;;;;;0.40;0.40;;;;;;;;;;5002637;28;20210;-63
2021/03/04 05:27:52;;;;;;;3.93;2.33;;;;;;;;;;5004212;28;20182;-62
2021/03/04 05:30:18;;;;;;;0.63;0.63;;;;;;;;;;5001850;28;20191;-63
2021/03/04 05:32:45;;;;;;;0.00;0.00;;;;;;;;;;5000643;28;20211;-63
2021/03/04 05:35:12;;;;;;;0.30;0.30;;;;;;;;;;5004167;28;20184;-63
2021/03/04 05:37:39;;;;;;;0.10;0.10;;;;;;;;;;5007798;28;20332;-64
2021/03/04 05:40:06;;;;;;;1.93;0.80;;;;;;;;;;5010422;28;20598;-63
2021/03/04 05:42:33;;;;;;;0.43;0.43;;;;;;;;;;5007729;28;20792;-63
2021/03/04 05:45:00;;;;;;;1.13;0.73;;;;;;;;;;5002291;28;20855;-63
2021/03/04 05:47:27;;;;;;;0.10;0.10;;;;;;;;;;5009757;28;20188;-63
2021/03/04 05:50:08;;;;;;;4.20;0.90;;;;;;;;;;5013648;28;20202;-63
2021/03/04 05:52:38;;;;;;;0.53;0.53;;;;;;;;;;5002524;28;20538;-63
2021/03/04 05:55:05;;;;;;;0.23;0.23;;;;;;;;;;5005028;28;20187;-63
2021/03/04 05:57:33;;;;;;;0.10;0.10;;;;;;;;;;5011157;28;20199;-63
2021/03/04 06:00:00;;;;;;;0.13;0.13;;;;;;;;;;5010999;28;20191;-62
2021/03/04 06:02:27;;;;;;;0.10;0.10;;;;;;;;;;5004990;28;20190;-63
2021/03/04 06:04:54;;;;;;;0.00;0.00;;;;;;;;;;5006097;28;20230;-63
2021/03/04 06:07:20;;;;;;;0.20;0.20;;;;;;;;;;5006251;28;20831;-63
2021/03/04 06:09:47;;;;;;;0.10;0.10;;;;;;;;;;5011982;28;20713;-63
2021/03/04 06:12:14;;;;;;;1.70;1.20;;;;;;;;;;5007060;28;20245;-63
2021/03/04 06:14:41;;;;;;;0.10;0.10;;;;;;;;;;5001820;28;20200;-62
2021/03/04 06:17:17;;;;;;;0.03;0.03;;;;;;;;;;5002811;28;20895;-63
2021/03/04 06:19:56;;;;;;;0.10;0.10;;;;;;;;;;5003783;28;20199;-63
2021/03/04 06:22:26;;;;;;;0.10;0.10;;;;;;;;;;5005083;28;20187;-62
2021/03/04 06:24:53;;;;;;;0.53;0.37;;;;;;;;;;5002414;28;20251;-63
2021/03/04 06:27:30;;;;;;;0.27;0.27;;;;;;;;;;5001868;28;20184;-63
2021/03/04 06:29:57;;;;;;;0.40;0.20;;;;;;;;;;5012066;28;20180;-63
2021/03/04 06:32:24;;;;;;;0.27;0.27;;;;;;;;;;5017817;28;21744;-63
2021/03/04 06:35:09;;;;;;;0.10;0.10;;;;;;;;;;5014796;28;20220;-63
2021/03/04 06:37:37;;;;;;;0.23;0.23;;;;;;;;;;5005321;28;20191;-63
2021/03/04 06:40:05;;;;;;;0.10;0.10;;;;;;;;;;5004320;28;20249;-63
2021/03/04 06:42:42;;;;;;;0.93;0.90;;;;;;;;;;5013464;28;20199;-64
2021/03/04 06:45:09;;;;;;;1.10;0.30;;;;;;;;;;5018926;28;20241;-64
2021/03/04 06:47:35;;;;;;;1.17;1.17;;;;;;;;;;5007135;28;20235;-63
2021/03/04 06:50:02;;;;;;;0.43;0.37;;;;;;;;;;5005123;28;20191;-64
2021/03/04 06:52:31;;;;;;;0.10;0.10;;;;;;;;;;5004533;28;20190;-63
2021/03/04 06:55:16;;;;;;;0.67;0.67;;;;;;;;;;5006787;28;20193;-63
2021/03/04 06:57:58;;;;;;;0.23;0.23;;;;;;;;;;5011995;28;20327;-63
2021/03/04 07:00:24;;;;;;;0.87;0.57;;;;;;;;;;5008276;28;20661;-63
2021/03/04 07:02:54;;;;;;;0.10;0.10;;;;;;;;;;5004302;28;20190;-63
2021/03/04 07:05:21;;;;;;;0.00;0.00;;;;;;;;;;5007111;28;20246;-63
2021/03/04 07:07:52;;;;;;;0.00;0.00;;;;;;;;;;5006607;28;20292;-63
2021/03/04 07:10:20;;;;;;;1.03;1.03;;;;;;;;;;5006593;28;20188;-63
2021/03/04 07:12:47;;;;;;;0.73;0.73;;;;;;;;;;5005030;28;20211;-63
2021/03/04 07:15:15;;;;;;;0.10;0.10;;;;;;;;;;5005617;28;21187;-62
2021/03/04 07:17:42;;;;;;;0.40;0.40;;;;;;;;;;5007145;28;20197;-62
2021/03/04 07:20:12;;;;;;;0.30;0.30;;;;;;;;;;5005568;28;20187;-62
2021/03/04 07:22:39;;;;;;;0.30;0.30;;;;;;;;;;5004640;28;20194;-62
2021/03/04 07:25:06;;;;;;;0.10;0.10;;;;;;;;;;5004211;28;20238;-62
2021/03/04 07:27:34;;;;;;;0.67;0.67;;;;;;;;;;5004059;28;20186;-63
2021/03/04 07:30:01;;;;;;;0.10;0.10;;;;;;;;;;5016468;28;20628;-63
2021/03/04 07:32:28;;;;;;;0.10;0.10;;;;;;;;;;5014112;28;20188;-62
2021/03/04 07:34:55;;;;;;;0.70;0.70;;;;;;;;;;5005609;28;20305;-62
2021/03/04 07:37:22;;;;;;;0.20;0.20;;;;;;;;;;5005625;28;20190;-63
2021/03/04 07:39:58;;;;;;;0.00;0.00;;;;;;;;;;5011592;28;20920;-62
2021/03/04 07:42:25;;;;;;;0.30;0.30;;;;;;;;;;5008158;28;20186;-63
2021/03/04 07:44:52;;;;;;;3.70;1.47;;;;;;;;;;5013047;28;20239;-62
2021/03/04 07:47:28;;;;;;;3.97;3.60;;;;;;;;;;5012076;28;20211;-63
2021/03/04 07:49:56;;;;;;;0.10;0.10;;;;;;;;;;5013058;28;20187;-62
2021/03/04 07:52:23;;;;;;;0.00;0.00;;;;;;;;;;5014090;28;20458;-63
2021/03/04 07:54:51;;;;;;;0.93;0.50;;;;;;;;;;5014600;28;20187;-63
2021/03/04 07:57:18;;;;;;;0.10;0.10;;;;;;;;;;5015019;28;20191;-63
2021/03/04 07:59:58;;;;;;;0.10;0.10;;;;;;;;;;5015292;28;20187;-63
2021/03/04 08:02:34;;;;;;;0.10;0.10;;;;;;;;;;5013855;28;20198;-63
2021/03/04 08:05:17;;;;;;;0.37;0.37;;;;;;;;;;5011211;28;20315;-63
2021/03/04 08:07:46;;;;;;;0.30;0.30;;;;;;;;;;5009105;28;20252;-63
2021/03/04 08:10:14;;;;;;;5.83;0.73;;;;;;;;;;5007410;28;20191;-63
2021/03/04 08:12:47;;;;;;;0.10;0.10;;;;;;;;;;5007233;28;20192;-63
2021/03/04 08:15:13;;;;;;;0.10;0.10;;;;;;;;;;5009123;28;20182;-62
2021/03/04 08:17:40;;;;;;;0.10;0.10;;;;;;;;;;5007374;28;20464;-63
2021/03/04 08:20:10;;;;;;;0.10;0.10;;;;;;;;;;5006960;28;20785;-63
2021/03/04 08:22:47;;;;;;;0.63;0.63;;;;;;;;;;5006072;28;20824;-63
2021/03/04 08:25:18;;;;;;;7.43;1.10;;;;;;;;;;5005353;28;20235;-63
2021/03/04 08:27:45;;;;;;;1.40;0.97;;;;;;;;;;5005173;28;20239;-63
2021/03/04 08:30:12;;;;;;;0.10;0.10;;;;;;;;;;5009943;28;20835;-63
2021/03/04 08:32:39;;;;;;;2.00;0.30;;;;;;;;;;5005715;28;20188;-63
2021/03/04 08:35:16;;;;;;;29.37;1.80;;;;;;;;;;5004135;28;20191;-63
2021/03/04 08:37:43;;;;;;;0.10;0.10;;;;;;;;;;5007237;28;20307;-63
2021/03/04 08:40:10;;;;;;;0.10;0.10;;;;;;;;;;5007574;28;20348;-63
2021/03/04 14:32:59;;;;;;;1.67;0.73;;;;;;;;;;5044756;28;20571;-63
2021/03/04 14:35:26;;;;;;;0.00;0.00;;;;;;;;;;5030575;28;20271;-63
2021/03/04 14:37:52;;;;;;;0.00;0.00;;;;;;;;;;5040006;28;20290;-63
2021/03/04 14:40:19;;;;;;;0.27;0.27;;;;;;;;;;5037498;28;20686;-63
2021/03/04 14:42:47;;;;;;;3.30;0.30;;;;;;;;;;5026279;28;20187;-63
2021/03/04 14:45:13;;;;;;;0.60;0.60;;;;;;;;;;5033225;28;20177;-63
2021/03/04 14:47:40;;;;;;;6.70;2.10;;;;;;;;;;5033182;28;20182;-63
2021/03/04 14:50:07;;;;;;;0.00;0.00;;;;;;;;;;5035692;28;20213;-64
2021/03/04 14:52:34;;;;;;;0.00;0.00;;;;;;;;;;5036084;28;20582;-63
2021/03/04 14:55:01;;;;;;;0.77;0.20;;;;;;;;;;5033674;28;20464;-63
2021/03/04 14:57:27;;;;;;;1.70;0.90;;;;;;;;;;5038382;28;20742;-63
2021/03/04 14:59:55;;;;;;;0.20;0.20;;;;;;;;;;5033908;28;20231;-63
2021/03/04 15:02:21;;;;;;;0.63;0.17;;;;;;;;;;5039664;28;20673;-63
2021/03/04 15:04:48;;;;;;;0.00;0.00;;;;;;;;;;5032452;28;20179;-66
2021/03/04 15:07:14;;;;;;;1.23;0.77;;;;;;;;;;5030935;28;20259;-64
2021/03/04 15:09:41;;;;;;;0.47;0.47;;;;;;;;;;5041403;28;20188;-63
2021/03/04 15:12:09;;;;;;;9.30;4.23;;;;;;;;;;5034642;28;20208;-62
2021/03/04 15:14:35;;;;;;;0.33;0.33;;;;;;;;;;5032106;28;20180;-63
2021/03/04 15:17:02;;;;;;;17.57;1.57;;;;;;;;;;5035926;28;20180;-63
2021/03/04 15:19:30;;;;;;;0.43;0.10;;;;;;;;;;5031786;28;20179;-63
2021/03/04 15:22:03;;;;;;;1.10;0.83;;;;;;;;;;5030837;28;20196;-63
2021/03/04 15:24:31;;;;;;;0.23;0.10;;;;;;;;;;5039345;28;20260;-63
2021/03/04 15:26:58;;;;;;;0.47;0.33;;;;;;;;;;5030701;28;20203;-64
2021/03/04 15:29:24;;;;;;;0.00;0.00;;;;;;;;;;5034256;28;20269;-63
2021/03/04 15:31:51;;;;;;;0.97;0.57;;;;;;;;;;5033458;28;20256;-63
2021/03/04 15:34:17;;;;;;;0.30;0.30;;;;;;;;;;5033915;28;20854;-63
2021/03/04 15:36:45;;;;;;;3.10;1.07;;;;;;;;;;5032184;28;20524;-63
2021/03/04 15:39:12;;;;;;;1.87;1.73;;;;;;;;;;5037255;28;20656;-63
2021/03/04 15:41:39;;;;;;;0.63;0.30;;;;;;;;;;5028242;28;20253;-63
2021/03/04 15:44:05;;;;;;;1.10;1.10;;;;;;;;;;5023316;28;20231;-63
2021/03/04 15:46:34;;;;;;;0.00;0.00;;;;;;;;;;5022962;28;20173;-63
2021/03/04 15:49:01;;;;;;;1.17;0.20;;;;;;;;;;5022437;28;20192;-63
2021/03/04 15:51:28;;;;;;;6.10;1.80;;;;;;;;;;5021341;28;20291;-63
2021/03/04 15:53:55;;;;;;;2.63;0.63;;;;;;;;;;5024001;28;20166;-63
2021/03/04 15:56:21;;;;;;;0.40;0.40;;;;;;;;;;5013471;28;20584;-63
2021/03/04 15:58:49;;;;;;;0.00;0.00;;;;;;;;;;5015185;28;20191;-63
2021/03/04 16:01:16;;;;;;;2.67;1.23;;;;;;;;;;5018029;28;20193;-63
2021/03/04 16:03:43;;;;;;;0.17;0.10;;;;;;;;;;5023857;28;20185;-63
2021/03/04 16:06:10;;;;;;;1.27;0.43;;;;;;;;;;5018523;28;20212;-63
2021/03/04 16:08:37;;;;;;;1.30;0.40;;;;;;;;;;5017193;28;20185;-63
2021/03/04 16:11:05;;;;;;;0.20;0.20;;;;;;;;;;5020480;28;20938;-64
2021/03/04 16:13:33;;;;;;;0.03;0.03;;;;;;;;;;5015431;28;20845;-64
2021/03/04 16:15:59;;;;;;;0.20;0.20;;;;;;;;;;5017970;28;20178;-65
2021/03/04 16:18:26;;;;;;;8.60;0.40;;;;;;;;;;5020923;28;20176;-64
2021/03/04 16:20:53;;;;;;;0.20;0.20;;;;;;;;;;5017998;28;20183;-63
2021/03/04 16:23:21;;;;;;;13.93;2.37;;;;;;;;;;5018451;28;20229;-64
2021/03/04 16:25:48;;;;;;;1.23;0.73;;;;;;;;;;5012424;28;20824;-63
2021/03/04 16:28:15;;;;;;;0.23;0.23;;;;;;;;;;5014131;28;20237;-64
2021/03/04 16:30:41;;;;;;;0.00;0.00;;;;;;;;;;5011279;28;20933;-63
2021/03/04 16:33:08;;;;;;;2.53;0.67;;;;;;;;;;5012625;28;20332;-62
2021/03/04 16:35:37;;;;;;;1.20;0.77;;;;;;;;;;5016104;28;20200;-63
2021/03/04 16:38:05;;;;;;;1.43;0.60;;;;;;;;;;5016114;28;20273;-63
2021/03/04 16:40:32;;;;;;;1.60;0.50;;;;;;;;;;5020235;28;20179;-63
2021/03/04 16:42:58;;;;;;;1.30;0.93;;;;;;;;;;5024502;28;20690;-63
2021/03/04 16:45:25;;;;;;;0.67;0.30;;;;;;;;;;5027048;28;20180;-63
2021/03/04 16:47:54;;;;;;;3.60;1.50;;;;;;;;;;5023057;28;20178;-63
2021/03/04 16:50:21;;;;;;;1.10;1.00;;;;;;;;;;5020767;28;20187;-63
2021/03/04 16:52:47;;;;;;;2.00;0.67;;;;;;;;;;5015196;28;20204;-63
2021/03/04 16:55:14;;;;;;;0.67;0.67;;;;;;;;;;5020759;28;20255;-64
2021/03/04 16:57:41;;;;;;;1.20;0.40;;;;;;;;;;5021974;28;20189;-63
2021/03/04 17:00:09;;;;;;;3.93;0.97;;;;;;;;;;5025438;28;20807;-62
2021/03/04 17:02:37;;;;;;;1.70;0.50;;;;;;;;;;5019468;28;20184;-63
2021/03/04 17:05:04;;;;;;;0.43;0.33;;;;;;;;;;5038573;28;20185;-63
2021/03/04 17:07:31;;;;;;;0.23;0.23;;;;;;;;;;5016264;28;20187;-62
2021/03/04 17:09:59;;;;;;;3.53;0.83;;;;;;;;;;5014426;28;20185;-62
2021/03/04 17:12:25;;;;;;;4.43;1.07;;;;;;;;;;5020188;28;20240;-63
2021/03/04 17:14:52;;;;;;;0.00;0.00;;;;;;;;;;5014033;28;20237;-63
2021/03/04 17:17:18;;;;;;;1.10;0.60;;;;;;;;;;5019803;28;20170;-64
2021/03/04 17:19:45;;;;;;;0.77;0.30;;;;;;;;;;5015350;28;20192;-64
2021/03/04 17:22:12;;;;;;;5.40;0.47;;;;;;;;;;5019089;28;20274;-65
2021/03/04 17:24:38;;;;;;;4.23;0.97;;;;;;;;;;5032793;28;20188;-63
2021/03/04 17:27:05;;;;;;;0.10;0.00;;;;;;;;;;5017021;28;20175;-63
2021/03/04 17:29:32;;;;;;;1.53;0.37;;;;;;;;;;5016223;28;20185;-63
2021/03/04 17:31:59;;;;;;;3.87;0.77;;;;;;;;;;5015280;28;20238;-63
2021/03/04 17:34:26;;;;;;;0.93;0.10;;;;;;;;;;5017651;28;20241;-63
2021/03/04 17:36:54;;;;;;;2.83;1.33;;;;;;;;;;5020439;28;20192;-63
2021/03/04 17:39:20;;;;;;;0.00;0.00;;;;;;;;;;5020192;28;20179;-63
2021/03/04 17:41:47;;;;;;;0.50;0.37;;;;;;;;;;5021028;28;20257;-63
2021/03/04 17:44:14;;;;;;;0.00;0.00;;;;;;;;;;5021070;28;20209;-63
2021/03/04 17:46:41;;;;;;;2.73;0.50;;;;;;;;;;5013970;28;20188;-62
2021/03/04 17:49:08;;;;;;;25.13;1.33;;;;;;;;;;5014850;28;20180;-63
2021/03/04 17:51:38;;;;;;;0.70;0.27;;;;;;;;;;5020148;28;20728;-63
2021/03/04 17:54:05;;;;;;;1.03;0.30;;;;;;;;;;5016301;28;20709;-64
2021/03/04 17:56:32;;;;;;;3.97;1.53;;;;;;;;;;5014018;28;20337;-63
2021/03/04 17:58:59;;;;;;;1.30;1.20;;;;;;;;;;5019932;28;20187;-63
2021/03/04 18:01:26;;;;;;;0.43;0.10;;;;;;;;;;5017069;28;20168;-63
2021/03/04 18:03:53;;;;;;;9.00;0.67;;;;;;;;;;5011758;28;20197;-62
2021/03/04 18:06:19;;;;;;;0.10;0.10;;;;;;;;;;5016733;28;20196;-63
2021/03/04 18:08:46;;;;;;;7.60;0.53;;;;;;;;;;5018204;28;20186;-63
2021/03/04 18:11:13;;;;;;;0.37;0.37;;;;;;;;;;5018033;28;20201;-63
2021/03/04 18:13:40;;;;;;;1.03;0.27;;;;;;;;;;5014636;28;20655;-63
2021/03/04 18:16:07;;;;;;;3.13;0.23;;;;;;;;;;5011045;28;20181;-63
2021/03/04 18:18:33;;;;;;;0.23;0.23;;;;;;;;;;5013579;28;21073;-63
2021/03/04 18:21:00;;;;;;;1.50;1.13;;;;;;;;;;5013115;28;20265;-63
2021/03/04 18:23:29;;;;;;;0.20;0.20;;;;;;;;;;5012809;28;20735;-63
2021/03/04 18:25:55;;;;;;;1.10;0.57;;;;;;;;;;5014026;28;20175;-64
2021/03/04 18:28:23;;;;;;;3.33;0.20;;;;;;;;;;5010242;28;20177;-63
2021/03/04 18:30:49;;;;;;;18.23;1.40;;;;;;;;;;5017287;28;20187;-63
2021/03/04 18:33:17;;;;;;;4.70;1.30;;;;;;;;;;5015941;28;20194;-63
2021/03/04 18:35:44;;;;;;;0.10;0.10;;;;;;;;;;5015258;28;20181;-62
2021/03/04 18:38:11;;;;;;;1.37;0.50;;;;;;;;;;5018848;28;20269;-63
2021/03/04 18:40:38;;;;;;;0.10;0.10;;;;;;;;;;5012342;28;20608;-62
2021/03/04 18:43:05;;;;;;;1.17;0.43;;;;;;;;;;5012453;28;20961;-62
2021/03/04 18:45:32;;;;;;;5.50;2.00;;;;;;;;;;5007312;28;20437;-62
2021/03/04 18:47:58;;;;;;;0.83;0.83;;;;;;;;;;5016871;28;20167;-63
2021/03/04 18:50:26;;;;;;;0.63;0.63;;;;;;;;;;5016236;28;20691;-64
2021/03/04 18:52:53;;;;;;;0.90;0.90;;;;;;;;;;5019745;28;20252;-63
2021/03/04 18:55:20;;;;;;;1.40;0.60;;;;;;;;;;5016442;28;20272;-63
2021/03/04 18:57:49;;;;;;;11.60;0.83;;;;;;;;;;5016422;28;20190;-64
2021/03/04 19:00:15;;;;;;;0.10;0.10;;;;;;;;;;5015164;28;20176;-62
2021/03/04 19:02:42;;;;;;;0.00;0.00;;;;;;;;;;5013318;28;20191;-63
2021/03/04 19:05:09;;;;;;;0.20;0.20;;;;;;;;;;5016261;28;20586;-63
2021/03/04 19:07:36;;;;;;;0.47;0.27;;;;;;;;;;5013546;28;20191;-63
2021/03/04 19:10:03;;;;;;;0.00;0.00;;;;;;;;;;5017582;28;20180;-63
2021/03/04 19:12:30;;;;;;;4.37;2.10;;;;;;;;;;5034358;28;20211;-62
2021/03/04 19:14:57;;;;;;;0.93;0.93;;;;;;;;;;5019930;28;20277;-63
2021/03/04 19:17:23;;;;;;;1.20;1.10;;;;;;;;;;5019200;28;20173;-62
2021/03/04 19:19:50;;;;;;;9.63;3.43;;;;;;;;;;5018516;28;20187;-63
2021/03/04 19:22:16;;;;;;;1.60;1.10;;;;;;;;;;5017011;28;20208;-63
2021/03/04 19:24:45;;;;;;;0.93;0.87;;;;;;;;;;5014617;28;20211;-63
2021/03/04 19:27:12;;;;;;;0.33;0.27;;;;;;;;;;5013443;28;20273;-62
2021/03/04 19:29:38;;;;;;;1.60;0.60;;;;;;;;;;5022052;28;20217;-63
2021/03/04 19:32:06;;;;;;;0.33;0.33;;;;;;;;;;5019239;28;20700;-63
2021/03/04 19:34:33;;;;;;;0.00;0.00;;;;;;;;;;5018540;28;20388;-64
2021/03/04 19:36:59;;;;;;;0.10;0.10;;;;;;;;;;5021071;28;20669;-63
2021/03/04 19:39:26;;;;;;;3.63;0.87;;;;;;;;;;5020906;28;20586;-63
2021/03/04 19:41:52;;;;;;;0.43;0.33;;;;;;;;;;5017291;28;20188;-63
2021/03/04 19:44:19;;;;;;;1.20;1.20;;;;;;;;;;5015514;28;20197;-63
2021/03/04 19:46:46;;;;;;;17.33;1.77;;;;;;;;;;5013876;28;20187;-63
2021/03/04 19:49:14;;;;;;;0.13;0.13;;;;;;;;;;5012346;28;20186;-63
2021/03/04 19:51:41;;;;;;;2.83;1.20;;;;;;;;;;5018328;28;20762;-63
2021/03/04 19:54:09;;;;;;;2.10;1.17;;;;;;;;;;5022166;28;20269;-63
2021/03/04 19:56:36;;;;;;;0.50;0.50;;;;;;;;;;5012079;28;20178;-63
2021/03/04 19:59:03;;;;;;;10.10;1.70;;;;;;;;;;5012354;28;20268;-63
2021/03/04 20:01:30;;;;;;;1.43;0.60;;;;;;;;;;5015170;28;20181;-63
2021/03/04 20:03:56;;;;;;;2.00;0.67;;;;;;;;;;5015536;28;20334;-63
2021/03/04 20:06:23;;;;;;;1.40;1.30;;;;;;;;;;5014627;28;20182;-63
2021/03/04 20:08:49;;;;;;;0.37;0.37;;;;;;;;;;5011923;28;20489;-63
2021/03/04 20:11:16;;;;;;;0.10;0.07;;;;;;;;;;5016552;28;20206;-63
2021/03/04 20:13:44;;;;;;;0.10;0.10;;;;;;;;;;5015468;28;20248;-63
2021/03/04 20:16:10;;;;;;;3.03;1.47;;;;;;;;;;5015227;28;20177;-63
2021/03/04 20:18:37;;;;;;;0.77;0.73;;;;;;;;;;5018759;28;20181;-64
2021/03/04 20:21:03;;;;;;;0.07;0.07;;;;;;;;;;5020598;28;20204;-63
2021/03/04 20:23:31;;;;;;;6.77;1.67;;;;;;;;;;5017600;28;20188;-63
2021/03/04 20:25:57;;;;;;;1.30;0.77;;;;;;;;;;5014643;28;20672;-63
2021/03/04 20:28:24;;;;;;;2.63;0.77;;;;;;;;;;5012837;28;20295;-63
2021/03/04 20:30:50;;;;;;;2.00;1.27;;;;;;;;;;5011596;28;20186;-63
2021/03/04 20:33:17;;;;;;;8.27;1.50;;;;;;;;;;5015744;28;20181;-63
2021/03/04 20:35:44;;;;;;;0.87;0.73;;;;;;;;;;5025463;28;20183;-63